createdAt,value
2022-12-24T00:01:44.644Z,6.72
2022-12-24T00:04:11.953Z,6.53
2022-12-24T00:06:39.311Z,6.60
2022-12-24T00:09:06.646Z,6.85
2022-12-24T00:11:34.074Z,6.93
2022-12-24T00:14:01.501Z,7.68
2022-12-24T00:16:29.056Z,8.40
2022-12-24T00:18:56.469Z,8.55
2022-12-24T00:21:23.801Z,8.18
2022-12-24T00:23:51.107Z,7.90
2022-12-24T00:26:19.324Z,6.70
2022-12-24T00:28:46.598Z,7.15
2022-12-24T00:31:15.156Z,6.90
2022-12-24T00:33:42.493Z,7.28
2022-12-24T00:36:09.967Z,7.72
2022-12-24T00:38:37.391Z,8.18
2022-12-24T00:41:06.181Z,8.00
2022-12-24T00:43:33.772Z,7.80
2022-12-24T00:46:01.227Z,7.93
2022-12-24T00:48:28.580Z,7.40
2022-12-24T00:50:55.928Z,7.55
2022-12-24T00:53:23.256Z,7.18
2022-12-24T00:55:50.578Z,7.30
2022-12-24T00:58:17.952Z,7.43
2022-12-24T01:00:45.208Z,8.05
2022-12-24T01:03:12.567Z,8.88
2022-12-24T01:05:39.867Z,8.00
2022-12-24T01:08:07.291Z,8.68
2022-12-24T01:10:34.563Z,7.70
2022-12-24T01:13:02.838Z,7.18
2022-12-24T01:15:30.540Z,6.90
2022-12-24T01:17:58.557Z,7.55
2022-12-24T01:20:31.542Z,6.20
2022-12-24T01:22:59.021Z,7.50
2022-12-24T01:25:26.298Z,6.15
2022-12-24T01:27:53.621Z,6.63
2022-12-24T01:30:20.985Z,7.50
2022-12-24T01:32:48.283Z,7.10
2022-12-24T01:35:15.604Z,7.82
2022-12-24T01:37:43.082Z,6.75
2022-12-24T01:40:33.692Z,7.65
2022-12-24T01:43:19.548Z,6.70
2022-12-24T01:45:55.686Z,6.43
2022-12-24T01:48:25.983Z,6.05
2022-12-24T01:50:56.049Z,6.88
2022-12-24T01:53:23.400Z,7.70
2022-12-24T01:55:51.476Z,8.63
2022-12-24T01:58:19.123Z,7.75
2022-12-24T02:00:46.493Z,7.22
2022-12-24T02:03:13.894Z,7.32
2022-12-24T02:05:48.976Z,7.47
2022-12-24T02:08:16.999Z,6.85
2022-12-24T02:10:44.899Z,7.45
2022-12-24T02:13:13.107Z,8.52
2022-12-24T02:15:50.360Z,8.75
2022-12-24T02:18:22.806Z,8.02
2022-12-24T02:21:08.692Z,8.80
2022-12-24T02:23:36.019Z,7.47
2022-12-24T02:26:12.369Z,8.15
2022-12-24T02:28:42.749Z,7.40
2022-12-24T02:31:15.343Z,9.20
2022-12-24T02:33:46.261Z,9.52
2022-12-24T02:36:24.290Z,9.18
2022-12-24T02:38:56.070Z,8.23
2022-12-24T02:41:25.552Z,9.57
2022-12-24T02:43:54.071Z,9.57
2022-12-24T02:46:27.028Z,8.25
2022-12-24T02:48:54.589Z,8.35
2022-12-24T02:51:25.717Z,8.43
2022-12-24T02:53:53.117Z,7.68
2022-12-24T02:56:39.109Z,7.32
2022-12-24T02:59:21.594Z,8.82
2022-12-24T03:01:52.075Z,8.00
2022-12-24T03:04:39.429Z,6.75
2022-12-24T03:07:09.935Z,6.28
2022-12-24T03:10:00.289Z,6.60
2022-12-24T03:12:31.308Z,6.82
2022-12-24T03:14:59.302Z,5.65
2022-12-24T03:17:27.689Z,6.32
2022-12-24T03:19:56.396Z,6.10
2022-12-24T03:22:24.009Z,6.50
2022-12-24T03:24:51.314Z,6.05
2022-12-24T03:27:18.795Z,5.05
2022-12-24T03:29:47.239Z,5.25
2022-12-24T03:32:14.524Z,5.65
2022-12-24T03:34:41.813Z,3.90
2022-12-24T03:37:09.081Z,3.97
2022-12-24T03:39:36.419Z,4.32
2022-12-24T03:42:03.744Z,4.53
2022-12-24T03:44:31.009Z,5.30
2022-12-24T03:46:58.346Z,5.05
2022-12-24T03:49:25.606Z,4.65
2022-12-24T03:51:53.122Z,3.75
2022-12-24T03:54:20.390Z,4.15
2022-12-24T03:56:47.685Z,3.55
2022-12-24T03:59:15.005Z,3.83
2022-12-24T04:01:42.441Z,3.72
2022-12-24T04:04:09.822Z,3.25
2022-12-24T04:06:37.087Z,3.63
2022-12-24T04:09:05.442Z,4.30
2022-12-24T04:11:33.130Z,3.67
2022-12-24T04:14:00.591Z,3.03
2022-12-24T04:16:27.873Z,3.70
2022-12-24T04:18:55.271Z,3.30
2022-12-24T04:21:22.568Z,3.53
2022-12-24T04:23:49.943Z,3.92
2022-12-24T04:26:17.475Z,3.63
2022-12-24T04:28:45.112Z,3.38
2022-12-24T04:31:14.296Z,2.50
2022-12-24T04:33:41.852Z,2.38
2022-12-24T04:36:09.784Z,3.05
2022-12-24T04:38:37.112Z,3.13
2022-12-24T04:41:23.202Z,3.60
2022-12-24T04:43:52.114Z,2.40
2022-12-24T04:46:21.771Z,3.35
2022-12-24T04:48:49.903Z,3.40
2022-12-24T04:51:17.865Z,3.30
2022-12-24T04:53:45.584Z,2.92
2022-12-24T04:56:13.773Z,2.90
2022-12-24T04:58:41.055Z,2.10
2022-12-24T05:01:10.086Z,2.67
2022-12-24T05:03:37.461Z,2.28
2022-12-24T05:06:09.345Z,5.32
2022-12-24T05:08:36.693Z,6.15
2022-12-24T05:11:04.295Z,3.70
2022-12-24T05:13:39.149Z,4.30
2022-12-24T05:16:12.241Z,6.47
2022-12-24T05:18:39.664Z,4.28
2022-12-24T05:21:22.226Z,10.98
2022-12-24T05:24:08.347Z,2.40
2022-12-24T05:26:35.576Z,5.10
2022-12-24T05:29:03.608Z,3.03
2022-12-24T05:31:31.860Z,2.08
2022-12-24T05:33:59.141Z,1.85
2022-12-24T05:36:26.479Z,2.30
2022-12-24T05:38:53.835Z,2.17
2022-12-24T05:41:21.167Z,2.22
2022-12-24T05:43:48.421Z,7.07
2022-12-24T05:46:16.985Z,1.90
2022-12-24T05:48:44.340Z,2.55
2022-12-24T05:51:13.355Z,2.75
2022-12-24T05:53:41.149Z,3.53
2022-12-24T05:56:16.615Z,4.78
2022-12-24T05:58:44.536Z,4.85
2022-12-24T06:01:11.894Z,4.38
2022-12-24T06:03:39.377Z,5.03
2022-12-24T06:06:07.827Z,4.65
2022-12-24T06:08:35.855Z,4.07
2022-12-24T06:11:03.918Z,4.43
2022-12-24T06:13:31.765Z,6.22
2022-12-24T06:16:00.199Z,6.40
2022-12-24T06:18:27.607Z,6.35
2022-12-24T06:20:55.582Z,7.00
2022-12-24T06:23:24.018Z,6.70
2022-12-24T06:25:51.858Z,5.93
2022-12-24T06:28:19.608Z,5.25
2022-12-24T06:30:47.716Z,6.95
2022-12-24T06:33:15.510Z,5.72
2022-12-24T06:35:43.064Z,5.78
2022-12-24T06:38:10.342Z,14.77
2022-12-24T06:40:39.507Z,21.77
2022-12-24T06:43:06.893Z,10.10
2022-12-24T06:45:34.139Z,5.88
2022-12-24T06:48:01.716Z,5.53
2022-12-24T06:50:29.031Z,5.40
2022-12-24T06:52:56.590Z,5.60
2022-12-24T06:55:23.901Z,4.65
2022-12-24T06:57:51.173Z,4.82
2022-12-24T07:00:18.604Z,4.43
2022-12-24T07:02:46.000Z,6.03
2022-12-24T07:05:13.702Z,5.22
2022-12-24T07:07:41.824Z,6.22
2022-12-24T07:10:09.677Z,6.60
2022-12-24T07:12:36.924Z,8.63
2022-12-24T07:15:04.507Z,8.68
2022-12-24T07:17:31.826Z,5.38
2022-12-24T07:19:59.132Z,8.23
2022-12-24T07:22:26.424Z,7.47
2022-12-24T07:24:53.720Z,6.35
2022-12-24T07:27:20.986Z,6.07
2022-12-24T07:29:48.486Z,7.25
2022-12-24T07:32:15.777Z,5.93
2022-12-24T07:34:43.088Z,9.40
2022-12-24T07:37:10.353Z,7.75
2022-12-24T07:39:37.624Z,9.10
2022-12-24T07:42:08.143Z,10.60
2022-12-24T07:44:35.932Z,11.05
2022-12-24T07:47:03.314Z,12.48
2022-12-24T07:49:30.626Z,13.88
2022-12-24T07:51:57.969Z,12.77
2022-12-24T07:54:25.317Z,11.75
2022-12-24T07:56:52.649Z,13.15
2022-12-24T07:59:19.955Z,12.35
2022-12-24T08:01:47.619Z,13.38
2022-12-24T08:04:15.001Z,14.95
2022-12-24T08:06:42.320Z,8.48
2022-12-24T08:09:09.599Z,5.18
2022-12-24T08:11:36.913Z,4.97
2022-12-24T08:14:04.190Z,5.93
2022-12-24T08:16:31.661Z,8.50
2022-12-24T08:18:59.103Z,8.25
2022-12-24T08:21:26.347Z,11.45
2022-12-24T08:23:53.784Z,15.13
2022-12-24T08:26:21.049Z,3.30
2022-12-24T08:28:48.500Z,3.30
2022-12-24T08:31:16.074Z,10.73
2022-12-24T08:33:43.451Z,3.50
2022-12-24T08:36:10.822Z,4.75
2022-12-24T08:38:38.165Z,4.38
2022-12-24T08:41:05.572Z,8.85
2022-12-24T08:43:32.891Z,13.77
2022-12-24T08:46:03.734Z,24.38
2022-12-24T08:48:31.513Z,21.30
2022-12-24T08:50:59.058Z,13.55
2022-12-24T08:53:26.381Z,19.25
2022-12-24T08:55:56.236Z,24.80
2022-12-24T08:58:23.850Z,19.65
2022-12-24T09:00:51.169Z,16.48
2022-12-24T09:03:25.097Z,18.73
2022-12-24T09:05:54.852Z,16.35
2022-12-24T09:08:22.294Z,15.88
2022-12-24T09:10:49.632Z,13.65
2022-12-24T09:13:16.909Z,12.10
2022-12-24T09:15:44.166Z,22.05
2022-12-24T09:18:11.517Z,10.80
2022-12-24T09:20:42.745Z,4.35
2022-12-24T09:23:13.053Z,7.93
2022-12-24T09:25:44.087Z,6.80
2022-12-24T09:28:11.431Z,7.45
2022-12-24T09:30:38.727Z,4.93
2022-12-24T09:33:06.058Z,4.50
2022-12-24T09:35:33.352Z,4.63
2022-12-24T09:38:03.512Z,6.13
2022-12-24T09:40:40.853Z,6.82
2022-12-24T09:43:27.127Z,6.45
2022-12-24T09:46:06.957Z,7.30
2022-12-24T09:48:39.323Z,8.70
2022-12-24T09:51:10.722Z,7.85
2022-12-24T09:53:38.035Z,7.80
2022-12-24T09:56:08.713Z,10.25
2022-12-24T09:58:38.333Z,9.18
2022-12-24T10:01:05.862Z,10.18
2022-12-24T10:03:33.538Z,8.77
2022-12-24T10:06:14.011Z,9.43
2022-12-24T10:09:00.158Z,7.03
2022-12-24T10:11:28.582Z,7.65
2022-12-24T10:14:01.927Z,6.70
2022-12-24T10:16:29.252Z,6.90
2022-12-24T10:19:01.127Z,6.78
2022-12-24T10:21:47.295Z,7.18
2022-12-24T10:24:20.699Z,5.00
2022-12-24T10:26:57.369Z,4.03
2022-12-24T10:29:28.311Z,4.35
2022-12-24T10:32:10.897Z,2.35
2022-12-24T10:34:50.190Z,5.10
2022-12-24T10:37:21.064Z,5.90
2022-12-24T10:39:48.329Z,3.17
2022-12-24T10:42:16.235Z,2.55
2022-12-24T10:44:46.705Z,1.50
2022-12-24T10:47:14.562Z,1.75
2022-12-24T10:49:55.062Z,1.55
2022-12-24T10:52:23.278Z,1.30
2022-12-24T10:55:09.327Z,2.75
2022-12-24T10:57:36.774Z,2.10
2022-12-24T11:00:04.631Z,1.35
2022-12-24T11:02:32.040Z,1.40
2022-12-24T11:05:00.322Z,1.35
2022-12-24T11:07:28.786Z,1.20
2022-12-24T11:10:03.540Z,1.85
2022-12-24T11:12:32.279Z,1.40
2022-12-24T11:15:06.418Z,1.40
2022-12-24T11:17:34.297Z,1.20
2022-12-24T11:20:04.166Z,1.10
2022-12-24T11:22:32.657Z,1.50
2022-12-24T11:25:19.425Z,1.20
2022-12-24T11:27:50.662Z,1.20
2022-12-24T11:30:18.098Z,1.50
2022-12-24T11:32:46.602Z,1.23
2022-12-24T11:35:19.237Z,1.40
2022-12-24T11:37:46.521Z,1.52
2022-12-24T11:40:23.940Z,1.30
2022-12-24T11:42:54.250Z,1.23
2022-12-24T11:45:23.907Z,1.88
2022-12-24T11:47:51.649Z,1.60
2022-12-24T11:50:38.198Z,2.05
2022-12-24T11:53:05.850Z,2.10
2022-12-24T11:55:42.523Z,2.08
2022-12-24T11:58:25.046Z,2.08
2022-12-24T12:00:53.625Z,2.20
2022-12-24T12:03:26.859Z,2.28
2022-12-24T12:05:56.317Z,1.90
2022-12-24T12:08:24.208Z,2.20
2022-12-24T12:10:53.332Z,1.80
2022-12-24T12:13:24.170Z,2.83
2022-12-24T12:16:07.383Z,2.10
2022-12-24T12:18:42.322Z,2.58
2022-12-24T12:21:18.264Z,2.88
2022-12-24T12:23:48.343Z,3.97
2022-12-24T12:26:23.216Z,3.13
2022-12-24T12:28:50.594Z,3.38
2022-12-24T12:31:28.764Z,3.33
2022-12-24T12:33:58.587Z,3.65
2022-12-24T12:36:34.357Z,3.72
2022-12-24T12:39:01.740Z,2.95
2022-12-24T12:41:41.155Z,3.28
2022-12-24T12:44:27.211Z,5.38
2022-12-24T12:47:00.660Z,4.75
2022-12-24T12:49:37.281Z,6.20
2022-12-24T12:52:17.139Z,6.90
2022-12-24T12:54:47.456Z,6.95
2022-12-24T12:57:16.368Z,7.35
2022-12-24T12:59:55.685Z,8.18
2022-12-24T13:02:32.107Z,7.78
2022-12-24T13:05:02.407Z,8.05
2022-12-24T13:07:44.414Z,11.35
2022-12-24T13:10:48.878Z,12.18
2022-12-24T13:13:30.544Z,12.18
2022-12-24T13:16:33.479Z,9.95
2022-12-24T13:19:15.840Z,8.15
2022-12-24T13:21:44.476Z,8.50
2022-12-24T13:24:14.733Z,8.20
2022-12-24T13:26:42.462Z,8.70
2022-12-24T13:29:38.987Z,8.13
2022-12-24T13:32:27.327Z,8.65
2022-12-24T13:35:01.312Z,11.52
2022-12-24T13:37:28.643Z,10.40
2022-12-24T13:40:02.206Z,12.27
2022-12-24T13:42:47.235Z,8.73
2022-12-24T13:45:32.918Z,9.45
2022-12-24T13:48:06.531Z,9.30
2022-12-24T13:50:38.552Z,8.70
2022-12-24T13:53:06.611Z,8.82
2022-12-24T13:55:34.370Z,6.82
2022-12-24T13:58:06.351Z,7.75
2022-12-24T14:00:44.537Z,8.77
2022-12-24T14:03:15.085Z,9.45
2022-12-24T14:05:46.604Z,8.57
2022-12-24T14:08:15.851Z,8.63
2022-12-24T14:10:44.923Z,9.00
2022-12-24T14:13:47.455Z,8.90
2022-12-24T14:16:20.803Z,7.07
2022-12-24T14:19:00.394Z,8.25
2022-12-24T14:21:30.518Z,9.55
2022-12-24T14:24:02.922Z,10.05
2022-12-24T14:26:36.121Z,7.32
2022-12-24T14:29:24.512Z,7.47
2022-12-24T14:31:56.044Z,8.77
2022-12-24T14:34:23.715Z,8.73
2022-12-24T14:36:52.307Z,9.75
2022-12-24T14:39:22.634Z,9.07
2022-12-24T14:42:08.168Z,9.35
2022-12-24T14:44:47.182Z,8.50
2022-12-24T14:47:14.447Z,9.27
2022-12-24T14:50:10.600Z,11.73
2022-12-24T14:53:04.627Z,7.55
2022-12-24T14:55:36.480Z,9.80
2022-12-24T14:58:18.379Z,6.22
2022-12-24T15:00:45.725Z,7.63
2022-12-24T15:03:17.049Z,10.48
2022-12-24T15:05:45.019Z,9.13
2022-12-24T15:08:16.949Z,11.20
2022-12-24T15:10:45.007Z,6.03
2022-12-24T15:13:21.232Z,7.35
2022-12-24T15:15:52.474Z,6.43
2022-12-24T15:18:22.465Z,6.90
2022-12-24T15:20:51.882Z,9.05
2022-12-24T15:23:20.683Z,8.27
2022-12-24T15:25:48.138Z,8.40
2022-12-24T15:28:19.669Z,8.43
2022-12-24T15:30:47.365Z,11.13
2022-12-24T15:33:14.724Z,8.63
2022-12-24T15:35:45.009Z,11.38
2022-12-24T15:38:30.725Z,8.80
2022-12-24T15:40:58.479Z,8.60
2022-12-24T15:43:26.025Z,7.18
2022-12-24T15:45:53.502Z,10.30
2022-12-24T15:48:23.809Z,9.68
2022-12-24T15:50:53.212Z,7.63
2022-12-24T15:53:25.765Z,7.95
2022-12-24T15:56:12.744Z,7.82
2022-12-24T15:58:41.447Z,23.30
2022-12-24T16:01:17.684Z,11.63
2022-12-24T16:03:51.249Z,21.13
2022-12-24T16:06:18.639Z,30.70
2022-12-24T16:08:46.058Z,10.27
2022-12-24T16:11:13.667Z,8.38
2022-12-24T16:13:45.080Z,9.88
2022-12-24T16:16:13.727Z,8.50
2022-12-24T16:18:49.981Z,23.40
2022-12-24T16:21:36.956Z,18.67
2022-12-24T16:24:24.835Z,12.23
2022-12-24T16:26:52.542Z,6.15
2022-12-24T16:29:20.041Z,14.00
2022-12-24T16:31:51.045Z,7.82
2022-12-24T16:34:18.613Z,11.55
2022-12-24T16:36:46.914Z,7.40
2022-12-24T16:39:24.469Z,6.32
2022-12-24T16:42:14.529Z,4.07
2022-12-24T16:44:42.184Z,5.93
2022-12-24T16:47:15.687Z,7.10
2022-12-24T16:49:42.944Z,7.17
2022-12-24T16:52:16.306Z,7.07
2022-12-24T16:54:43.554Z,7.68
2022-12-24T16:57:11.347Z,7.22
2022-12-24T16:59:38.887Z,6.05
2022-12-24T17:02:12.432Z,6.18
2022-12-24T17:04:41.518Z,5.43
2022-12-24T17:07:08.911Z,5.25
2022-12-24T17:09:36.217Z,7.22
2022-12-24T17:12:03.635Z,6.00
2022-12-24T17:14:30.974Z,5.75
2022-12-24T17:16:58.316Z,6.47
2022-12-24T17:19:25.663Z,6.32
2022-12-24T17:21:52.944Z,6.13
2022-12-24T17:24:20.240Z,5.78
2022-12-24T17:26:47.568Z,6.35
2022-12-24T17:29:14.826Z,6.90
2022-12-24T17:31:43.146Z,8.23
2022-12-24T17:34:10.551Z,7.43
2022-12-24T17:36:37.949Z,7.95
2022-12-24T17:39:05.326Z,6.90
2022-12-24T17:41:32.627Z,6.85
2022-12-24T17:44:00.037Z,6.30
2022-12-24T17:46:27.374Z,6.55
2022-12-24T17:48:55.951Z,6.18
2022-12-24T17:51:23.726Z,6.60
2022-12-24T17:53:51.247Z,6.45
2022-12-24T17:56:18.543Z,6.40
2022-12-24T17:58:47.157Z,5.65
2022-12-24T18:01:15.513Z,5.18
2022-12-24T18:03:43.118Z,5.82
2022-12-24T18:06:11.274Z,5.07
2022-12-24T18:08:39.207Z,5.18
2022-12-24T18:11:20.843Z,5.32
2022-12-24T18:13:48.754Z,4.95
2022-12-24T18:16:17.619Z,5.90
2022-12-24T18:18:45.319Z,6.05
2022-12-24T18:21:12.615Z,6.50
2022-12-24T18:23:43.039Z,5.35
2022-12-24T18:26:10.770Z,5.43
2022-12-24T18:28:38.114Z,5.45
2022-12-24T18:31:06.975Z,6.90
2022-12-24T18:33:35.025Z,6.30
2022-12-24T18:36:02.480Z,6.70
2022-12-24T18:38:29.765Z,7.20
2022-12-24T18:41:02.303Z,6.15
2022-12-24T18:43:29.551Z,7.35
2022-12-24T18:45:56.890Z,6.70
2022-12-24T18:48:24.138Z,6.93
2022-12-24T18:50:55.714Z,7.35
2022-12-24T18:53:22.990Z,7.63
2022-12-24T18:55:50.321Z,8.02
2022-12-24T18:58:17.731Z,8.52
2022-12-24T19:00:45.321Z,9.05
2022-12-24T19:03:15.922Z,9.77
2022-12-24T19:05:43.994Z,10.60
2022-12-24T19:08:46.959Z,9.45
2022-12-24T19:10:58.624Z,9.57
2022-12-24T19:13:25.901Z,11.30
2022-12-24T19:15:53.238Z,13.13
2022-12-24T19:18:20.624Z,11.85
2022-12-24T19:20:47.976Z,10.38
2022-12-24T19:23:15.366Z,10.45
2022-12-24T19:25:42.740Z,8.23
2022-12-24T19:28:10.055Z,9.30
2022-12-24T19:30:37.763Z,10.80
2022-12-24T19:33:05.118Z,10.27
2022-12-24T19:35:32.702Z,10.32
2022-12-24T19:37:59.986Z,10.70
2022-12-24T19:40:27.719Z,11.93
2022-12-24T19:42:55.090Z,11.50
2022-12-24T19:45:23.393Z,11.27
2022-12-24T19:47:51.900Z,13.30
2022-12-24T19:50:19.277Z,12.43
2022-12-24T19:52:46.603Z,13.40
2022-12-24T19:55:15.158Z,15.55
2022-12-24T19:57:42.949Z,14.45
2022-12-24T20:00:10.697Z,15.50
2022-12-24T20:02:38.165Z,16.67
2022-12-24T20:05:05.792Z,17.98
2022-12-24T20:07:33.167Z,14.85
2022-12-24T20:10:00.431Z,16.95
2022-12-24T20:12:27.816Z,15.68
2022-12-24T20:14:56.461Z,16.63
2022-12-24T20:17:23.812Z,16.48
2022-12-24T20:19:51.184Z,16.90
2022-12-24T20:22:18.551Z,16.13
2022-12-24T20:24:45.870Z,14.40
2022-12-24T20:27:13.197Z,14.75
2022-12-24T20:29:40.677Z,13.85
2022-12-24T20:32:08.157Z,13.90
2022-12-24T20:34:36.736Z,14.10
2022-12-24T20:37:04.365Z,14.50
2022-12-24T20:39:31.650Z,14.00
2022-12-24T20:42:01.028Z,13.23
2022-12-24T20:44:28.290Z,12.13
2022-12-24T20:46:55.592Z,14.43
2022-12-24T20:49:22.973Z,13.30
2022-12-24T20:51:50.276Z,15.15
2022-12-24T20:54:17.636Z,13.02
2022-12-24T20:56:44.922Z,12.45
2022-12-24T20:59:25.799Z,12.27
2022-12-24T21:01:53.498Z,12.55
2022-12-24T21:04:21.045Z,11.70
2022-12-24T21:06:48.319Z,14.80
2022-12-24T21:09:15.684Z,14.32
2022-12-24T21:11:52.052Z,15.18
2022-12-24T21:14:23.970Z,15.13
2022-12-24T21:16:52.045Z,13.00
2022-12-24T21:19:20.619Z,13.50
2022-12-24T21:21:48.114Z,14.52
2022-12-24T21:24:15.640Z,15.07
2022-12-24T21:26:43.008Z,15.35
2022-12-24T21:29:10.317Z,15.15
2022-12-24T21:31:38.001Z,17.13
2022-12-24T21:34:05.344Z,16.08
2022-12-24T21:36:32.728Z,14.77
2022-12-24T21:39:00.155Z,14.48
2022-12-24T21:41:28.153Z,15.82
2022-12-24T21:43:55.475Z,13.20
2022-12-24T21:46:25.282Z,16.20
2022-12-24T21:49:12.248Z,13.88
2022-12-24T21:51:40.028Z,12.32
2022-12-24T21:54:26.298Z,11.32
2022-12-24T21:57:13.472Z,11.13
2022-12-24T21:59:40.817Z,10.90
2022-12-24T22:02:08.697Z,9.88
2022-12-24T22:04:36.158Z,9.95
2022-12-24T22:07:22.295Z,9.50
2022-12-24T22:10:08.353Z,11.20
2022-12-24T22:12:36.052Z,9.63
2022-12-24T22:15:05.588Z,9.88
2022-12-24T22:17:32.917Z,8.88
2022-12-24T22:20:00.311Z,9.93
2022-12-24T22:22:27.602Z,9.60
2022-12-24T22:24:54.887Z,8.48
2022-12-24T22:27:22.241Z,8.85
2022-12-24T22:29:49.540Z,9.25
2022-12-24T22:32:16.839Z,9.32
2022-12-24T22:34:44.175Z,8.80
2022-12-24T22:37:11.712Z,8.55
2022-12-24T22:39:39.285Z,9.35
2022-12-24T22:42:06.595Z,9.85
2022-12-24T22:44:33.918Z,11.25
2022-12-24T22:47:01.350Z,9.80
2022-12-24T22:49:28.693Z,10.82
2022-12-24T22:51:59.400Z,9.60
2022-12-24T22:54:26.738Z,9.88
2022-12-24T22:56:54.038Z,10.30
2022-12-24T22:59:21.364Z,9.68
2022-12-24T23:01:49.071Z,10.15
2022-12-24T23:04:16.548Z,10.88
2022-12-24T23:06:44.749Z,10.85
2022-12-24T23:09:13.376Z,11.05
2022-12-24T23:11:41.289Z,11.10
2022-12-24T23:14:27.666Z,11.55
2022-12-24T23:16:54.953Z,10.43
2022-12-24T23:19:22.205Z,10.80
2022-12-24T23:21:49.531Z,12.32
2022-12-24T23:24:16.786Z,10.93
2022-12-24T23:26:44.081Z,10.95
2022-12-24T23:29:11.410Z,12.15
2022-12-24T23:31:38.732Z,11.75
2022-12-24T23:34:06.063Z,11.10
2022-12-24T23:36:33.320Z,11.40
2022-12-24T23:39:00.714Z,11.43
2022-12-24T23:41:27.999Z,10.52
2022-12-24T23:43:55.375Z,12.32
2022-12-24T23:46:22.715Z,10.07
2022-12-24T23:48:54.052Z,11.68
2022-12-24T23:51:23.703Z,11.48
2022-12-24T23:53:53.746Z,11.38
2022-12-24T23:56:21.546Z,10.75
2022-12-24T23:58:49.210Z,10.52
